createdAt,value
2023-02-24T00:02:01.419Z,100.00
2023-02-24T00:04:31.347Z,100.00
2023-02-24T00:06:59.999Z,100.00
2023-02-24T00:09:31.495Z,100.00
2023-02-24T00:12:02.527Z,100.00
2023-02-24T00:14:33.198Z,100.00
2023-02-24T00:17:03.119Z,100.00
2023-02-24T00:19:33.865Z,100.00
2023-02-24T00:22:03.397Z,100.00
2023-02-24T00:24:32.525Z,100.00
2023-02-24T00:27:07.533Z,100.00
2023-02-24T00:29:37.696Z,100.00
2023-02-24T00:32:12.310Z,100.00
2023-02-24T00:34:41.944Z,100.00
2023-02-24T00:37:10.513Z,100.00
2023-02-24T00:39:41.502Z,100.00
2023-02-24T00:42:12.543Z,100.00
2023-02-24T00:44:44.939Z,100.00
2023-02-24T00:47:17.244Z,100.00
2023-02-24T00:49:45.950Z,100.00
2023-02-24T00:52:17.195Z,100.00
2023-02-24T00:54:47.078Z,100.00
2023-02-24T00:57:17.471Z,100.00
2023-02-24T00:59:47.457Z,100.00
2023-02-24T01:02:17.368Z,100.00
2023-02-24T01:04:46.420Z,100.00
2023-02-24T01:07:16.105Z,100.00
2023-02-24T01:09:45.018Z,100.00
2023-02-24T01:12:32.320Z,100.00
2023-02-24T01:15:02.963Z,100.00
2023-02-24T01:17:32.720Z,100.00
2023-02-24T01:20:15.709Z,100.00
2023-02-24T01:22:44.772Z,100.00
2023-02-24T01:25:13.610Z,100.00
2023-02-24T01:27:43.273Z,100.00
2023-02-24T01:30:15.743Z,100.00
2023-02-24T01:32:47.201Z,100.00
2023-02-24T01:35:16.664Z,100.00
2023-02-24T01:37:45.483Z,100.00
2023-02-24T01:40:21.465Z,100.00
2023-02-24T01:42:50.992Z,100.00
2023-02-24T01:45:28.603Z,100.00
2023-02-24T01:48:03.266Z,100.00
2023-02-24T01:50:33.575Z,100.00
2023-02-24T01:53:06.535Z,100.00
2023-02-24T01:55:38.240Z,100.00
2023-02-24T01:58:15.493Z,100.00
2023-02-24T02:00:47.039Z,100.00
2023-02-24T02:03:27.629Z,100.00
2023-02-24T02:06:01.745Z,100.00
2023-02-24T02:08:30.965Z,100.00
2023-02-24T02:11:06.553Z,100.00
2023-02-24T02:13:36.683Z,100.00
2023-02-24T02:16:27.963Z,100.00
2023-02-24T02:19:20.339Z,100.00
2023-02-24T02:22:23.868Z,100.00
2023-02-24T02:24:58.288Z,100.00
2023-02-24T02:28:31.499Z,100.00
2023-02-24T02:31:51.746Z,100.00
2023-02-24T02:34:34.968Z,100.00
2023-02-24T02:37:11.954Z,100.00
2023-02-24T02:39:52.543Z,100.00
2023-02-24T02:42:30.087Z,100.00
2023-02-24T02:45:08.457Z,100.00
2023-02-24T02:47:43.241Z,100.00
2023-02-24T02:50:19.710Z,100.00
2023-02-24T02:52:54.945Z,100.00
2023-02-24T02:55:34.800Z,100.00
2023-02-24T02:58:09.078Z,100.00
2023-02-24T03:00:49.983Z,100.00
2023-02-24T03:03:20.517Z,100.00
2023-02-24T03:05:57.329Z,100.00
2023-02-24T03:08:34.280Z,100.00
2023-02-24T03:11:05.587Z,100.00
2023-02-24T03:13:38.778Z,100.00
2023-02-24T03:16:11.485Z,100.00
2023-02-24T03:18:45.164Z,100.00
2023-02-24T03:21:25.403Z,100.00
2023-02-24T03:23:54.614Z,100.00
2023-02-24T03:26:30.766Z,100.00
2023-02-24T03:29:07.807Z,100.00
2023-02-24T03:31:45.984Z,100.00
2023-02-24T03:34:21.029Z,100.00
2023-02-24T03:36:51.054Z,100.00
2023-02-24T03:39:19.698Z,100.00
2023-02-24T03:42:08.110Z,100.00
2023-02-24T03:44:37.726Z,100.00
2023-02-24T03:47:06.422Z,100.00
2023-02-24T03:49:37.613Z,100.00
2023-02-24T03:52:21.711Z,100.00
2023-02-24T03:55:13.830Z,100.00
2023-02-24T03:57:59.772Z,100.00
2023-02-24T04:00:41.333Z,100.00
2023-02-24T04:03:26.456Z,100.00
2023-02-24T04:06:14.113Z,100.00
2023-02-24T04:08:52.104Z,100.00
2023-02-24T04:11:29.022Z,100.00
2023-02-24T04:14:06.390Z,100.00
2023-02-24T04:16:41.111Z,100.00
2023-02-24T04:19:13.982Z,100.00
2023-02-24T04:21:48.390Z,100.00
2023-02-24T04:24:28.926Z,100.00
2023-02-24T04:27:00.690Z,100.00
2023-02-24T04:29:36.667Z,100.00
2023-02-24T04:32:11.020Z,100.00
2023-02-24T04:34:41.029Z,100.00
2023-02-24T04:37:10.143Z,100.00
2023-02-24T04:39:39.892Z,100.00
2023-02-24T04:42:19.930Z,100.00
2023-02-24T04:44:48.438Z,100.00
2023-02-24T04:47:17.093Z,100.00
2023-02-24T04:49:45.656Z,100.00
2023-02-24T04:52:15.277Z,100.00
2023-02-24T04:54:45.129Z,100.00
2023-02-24T04:57:14.348Z,100.00
2023-02-24T04:59:43.014Z,100.00
2023-02-24T05:02:13.233Z,100.00
2023-02-24T05:04:41.788Z,100.00
2023-02-24T05:07:12.712Z,100.00
2023-02-24T05:09:41.305Z,100.00
2023-02-24T05:12:10.843Z,100.00
2023-02-24T05:14:39.597Z,100.00
2023-02-24T05:17:08.385Z,100.00
2023-02-24T05:19:54.244Z,100.00
2023-02-24T05:22:22.848Z,100.00
2023-02-24T05:24:51.359Z,100.00
2023-02-24T05:27:22.267Z,100.00
2023-02-24T05:29:50.859Z,100.00
2023-02-24T05:32:19.432Z,100.00
2023-02-24T05:34:48.138Z,100.00
2023-02-24T05:37:16.797Z,100.00
2023-02-24T05:39:45.444Z,100.00
2023-02-24T05:42:13.974Z,100.00
2023-02-24T05:44:43.553Z,100.00
2023-02-24T05:47:12.111Z,100.00
2023-02-24T05:49:40.962Z,100.00
2023-02-24T05:52:11.222Z,100.00
2023-02-24T05:54:41.746Z,100.00
2023-02-24T05:57:12.780Z,100.00
2023-02-24T05:59:43.362Z,100.00
2023-02-24T06:02:13.707Z,100.00
2023-02-24T06:04:50.793Z,100.00
2023-02-24T06:07:22.796Z,100.00
2023-02-24T06:09:53.866Z,100.00
2023-02-24T06:12:24.644Z,100.00
2023-02-24T06:14:54.530Z,100.00
2023-02-24T06:17:24.272Z,100.00
2023-02-24T06:19:54.037Z,100.00
2023-02-24T06:22:24.474Z,100.00
2023-02-24T06:24:54.265Z,100.00
2023-02-24T06:27:25.226Z,100.00
2023-02-24T06:29:57.576Z,100.00
2023-02-24T06:32:27.997Z,100.00
2023-02-24T06:34:57.500Z,100.00
2023-02-24T06:37:26.142Z,100.00
2023-02-24T06:39:54.761Z,100.00
2023-02-24T06:42:23.486Z,100.00
2023-02-24T06:44:52.008Z,100.00
2023-02-24T06:47:22.663Z,100.00
2023-02-24T06:49:51.425Z,100.00
2023-02-24T06:52:19.903Z,100.00
2023-02-24T06:54:52.324Z,100.00
2023-02-24T06:57:20.871Z,100.00
2023-02-24T06:59:50.832Z,100.00
2023-02-24T07:02:20.783Z,100.00
2023-02-24T07:04:49.307Z,100.00
2023-02-24T07:07:18.854Z,100.00
2023-02-24T07:09:47.559Z,100.00
2023-02-24T07:12:20.840Z,100.00
2023-02-24T07:14:50.662Z,100.00
2023-02-24T07:17:19.905Z,100.00
2023-02-24T07:19:49.452Z,100.00
2023-02-24T07:22:25.005Z,100.00
2023-02-24T07:25:00.280Z,100.00
2023-02-24T07:27:28.871Z,100.00
2023-02-24T07:29:59.149Z,100.00
2023-02-24T07:32:27.764Z,100.00
2023-02-24T07:34:57.355Z,100.00
2023-02-24T07:37:25.870Z,100.00
2023-02-24T07:39:54.340Z,100.00
2023-02-24T07:42:22.879Z,100.00
2023-02-24T07:44:56.103Z,100.00
2023-02-24T07:47:25.143Z,100.00
2023-02-24T07:49:55.303Z,100.00
2023-02-24T07:52:24.899Z,100.00
2023-02-24T07:54:55.066Z,100.00
2023-02-24T07:57:25.103Z,100.00
2023-02-24T07:59:54.068Z,100.00
2023-02-24T08:02:23.765Z,100.00
2023-02-24T08:04:52.338Z,100.00
2023-02-24T08:07:24.600Z,100.00
2023-02-24T08:10:12.303Z,100.00
2023-02-24T08:12:43.604Z,100.00
2023-02-24T08:15:23.936Z,100.00
2023-02-24T08:17:59.796Z,100.00
2023-02-24T08:20:35.971Z,100.00
2023-02-24T08:23:08.578Z,100.00
2023-02-24T08:25:38.443Z,100.00
2023-02-24T08:28:11.822Z,100.00
2023-02-24T08:30:45.397Z,100.00
2023-02-24T08:33:20.623Z,100.00
2023-02-24T08:36:00.903Z,100.00
2023-02-24T08:38:39.796Z,100.00
2023-02-24T08:41:17.657Z,100.00
2023-02-24T08:43:47.405Z,100.00
2023-02-24T08:46:21.219Z,100.00
2023-02-24T08:48:55.437Z,100.00
2023-02-24T08:51:29.650Z,100.00
2023-02-24T08:54:00.927Z,100.00
2023-02-24T08:56:34.590Z,100.00
2023-02-24T08:59:06.318Z,100.00
2023-02-24T09:01:37.317Z,100.00
2023-02-24T09:04:09.524Z,100.00
2023-02-24T09:06:44.854Z,100.00
2023-02-24T09:09:22.395Z,100.00
2023-02-24T09:11:56.003Z,100.00
2023-02-24T09:14:28.819Z,100.00
2023-02-24T09:17:07.142Z,100.00
2023-02-24T09:20:02.234Z,100.00
2023-02-24T09:22:32.941Z,100.00
2023-02-24T09:25:21.593Z,100.00
2023-02-24T09:27:55.621Z,100.00
2023-02-24T09:30:38.570Z,100.00
2023-02-24T09:33:20.858Z,100.00
2023-02-24T09:36:09.626Z,100.00
2023-02-24T09:39:09.730Z,100.00
2023-02-24T09:41:56.882Z,100.00
2023-02-24T09:44:35.181Z,100.00
2023-02-24T09:47:13.515Z,100.00
2023-02-24T09:49:56.025Z,100.00
2023-02-24T09:52:39.681Z,100.00
2023-02-24T09:55:25.967Z,100.00
2023-02-24T09:58:20.111Z,100.00
2023-02-24T10:01:20.835Z,100.00
2023-02-24T10:04:18.289Z,100.00
2023-02-24T10:06:51.534Z,100.00
2023-02-24T10:09:26.933Z,100.00
2023-02-24T10:12:04.477Z,100.00
2023-02-24T10:14:44.580Z,100.00
2023-02-24T10:17:24.167Z,100.00
2023-02-24T10:20:00.493Z,100.00
2023-02-24T10:22:50.354Z,100.00
2023-02-24T10:25:39.359Z,100.00
2023-02-24T10:28:24.555Z,100.00
2023-02-24T10:31:10.181Z,100.00
2023-02-24T10:33:46.003Z,100.00
2023-02-24T10:36:22.202Z,100.00
2023-02-24T10:38:55.906Z,100.00
2023-02-24T10:41:28.703Z,100.00
2023-02-24T10:43:58.782Z,100.00
2023-02-24T10:46:41.042Z,100.00
2023-02-24T10:49:16.698Z,100.00
2023-02-24T10:51:54.219Z,100.00
2023-02-24T10:54:44.802Z,100.00
2023-02-24T10:57:23.145Z,100.00
2023-02-24T11:00:15.371Z,100.00
2023-02-24T11:03:07.049Z,100.00
2023-02-24T11:06:05.887Z,100.00
2023-02-24T11:08:54.257Z,100.00
2023-02-24T11:11:30.749Z,100.00
2023-02-24T11:14:20.428Z,100.00
2023-02-24T11:17:08.583Z,100.00
2023-02-24T11:19:45.132Z,100.00
2023-02-24T11:22:21.290Z,100.00
2023-02-24T11:24:51.878Z,100.00
2023-02-24T11:27:24.391Z,100.00
2023-02-24T11:30:16.916Z,100.00
2023-02-24T11:33:03.870Z,100.00
2023-02-24T11:35:40.741Z,100.00
2023-02-24T11:38:27.874Z,100.00
2023-02-24T11:41:06.459Z,100.00
2023-02-24T11:43:41.307Z,100.00
2023-02-24T11:46:13.513Z,100.00
2023-02-24T11:48:48.518Z,100.00
2023-02-24T11:51:23.384Z,100.00
2023-02-24T11:53:57.642Z,100.00
2023-02-24T11:56:31.887Z,100.00
2023-02-24T11:59:05.078Z,100.00
2023-02-24T12:01:40.381Z,100.00
2023-02-24T12:04:20.060Z,100.00
2023-02-24T12:06:58.474Z,100.00
2023-02-24T12:09:41.623Z,100.00
2023-02-24T12:12:14.915Z,100.00
2023-02-24T12:14:49.601Z,100.00
2023-02-24T12:17:25.333Z,100.00
2023-02-24T12:20:01.590Z,100.00
2023-02-24T12:22:42.347Z,100.00
2023-02-24T12:25:16.697Z,100.00
2023-02-24T12:28:01.882Z,100.00
2023-02-24T12:30:49.728Z,100.00
2023-02-24T12:33:34.231Z,100.00
2023-02-24T12:36:13.278Z,100.00
2023-02-24T12:38:58.635Z,100.00
2023-02-24T12:41:41.710Z,100.00
2023-02-24T12:44:27.044Z,100.00
2023-02-24T12:47:04.847Z,100.00
2023-02-24T12:49:59.194Z,100.00
2023-02-24T12:52:35.678Z,100.00
2023-02-24T12:55:14.743Z,100.00
2023-02-24T12:57:56.603Z,100.00
2023-02-24T13:00:37.594Z,100.00
2023-02-24T13:03:22.926Z,100.00
2023-02-24T13:06:02.673Z,100.00
2023-02-24T13:08:44.211Z,100.00
2023-02-24T13:11:22.088Z,100.00
2023-02-24T13:14:01.374Z,100.00
2023-02-24T13:16:33.009Z,100.00
2023-02-24T13:19:22.212Z,100.00
2023-02-24T13:22:02.523Z,100.00
2023-02-24T13:24:31.373Z,100.00
2023-02-24T13:27:22.424Z,100.00
2023-02-24T13:29:57.402Z,100.00
2023-02-24T13:32:31.676Z,100.00
2023-02-24T13:35:03.336Z,100.00
2023-02-24T13:37:36.432Z,100.00
2023-02-24T13:40:28.126Z,100.00
2023-02-24T13:43:04.882Z,100.00
2023-02-24T13:45:37.190Z,100.00
2023-02-24T13:48:26.722Z,100.00
2023-02-24T13:51:47.364Z,100.00
2023-02-24T13:54:33.149Z,100.00
2023-02-24T13:57:29.371Z,100.00
2023-02-24T14:00:11.376Z,100.00
2023-02-24T14:02:45.105Z,100.00
2023-02-24T14:05:23.031Z,100.00
2023-02-24T14:07:53.179Z,100.00
2023-02-24T14:10:25.075Z,100.00
2023-02-24T14:13:06.736Z,100.00
2023-02-24T14:15:36.143Z,100.00
2023-02-24T14:18:07.298Z,100.00
2023-02-24T14:20:37.867Z,100.00
2023-02-24T14:23:23.226Z,100.00
2023-02-24T14:25:57.849Z,100.00
2023-02-24T14:28:31.142Z,100.00
2023-02-24T14:31:03.693Z,100.00
2023-02-24T14:33:38.543Z,99.98
2023-02-24T14:36:09.209Z,100.00
2023-02-24T14:38:39.903Z,100.00
2023-02-24T14:41:20.175Z,99.04
2023-02-24T14:43:48.741Z,99.04
2023-02-24T14:46:17.409Z,98.68
2023-02-24T14:48:52.738Z,97.76
2023-02-24T14:51:29.369Z,96.61
2023-02-24T14:54:02.850Z,96.86
2023-02-24T14:56:35.180Z,94.66
2023-02-24T14:59:09.478Z,95.03
2023-02-24T15:01:41.118Z,94.43
2023-02-24T15:04:22.163Z,94.31
2023-02-24T15:06:50.534Z,94.01
2023-02-24T15:09:23.650Z,93.64
2023-02-24T15:11:55.565Z,92.99
2023-02-24T15:14:27.613Z,93.17
2023-02-24T15:17:00.336Z,92.44
2023-02-24T15:19:37.228Z,92.90
2023-02-24T15:22:19.140Z,92.49
2023-02-24T15:24:47.404Z,92.73
2023-02-24T15:27:26.737Z,92.27
2023-02-24T15:30:02.645Z,92.49
2023-02-24T15:32:34.638Z,91.78
2023-02-24T15:35:05.757Z,92.19
2023-02-24T15:37:42.483Z,91.96
2023-02-24T15:40:21.786Z,91.79
2023-02-24T15:42:55.847Z,91.00
2023-02-24T15:45:33.175Z,90.99
2023-02-24T15:48:03.128Z,90.13
2023-02-24T15:50:33.561Z,89.92
2023-02-24T15:53:05.429Z,89.67
2023-02-24T15:55:33.731Z,90.03
2023-02-24T15:58:04.428Z,89.96
2023-02-24T16:00:33.008Z,90.27
2023-02-24T16:03:01.517Z,90.15
2023-02-24T16:05:30.231Z,89.85
2023-02-24T16:07:59.816Z,90.29
2023-02-24T16:10:31.094Z,90.09
2023-02-24T16:13:01.791Z,90.20
2023-02-24T16:15:35.581Z,90.26
2023-02-24T16:18:04.976Z,91.10
2023-02-24T16:20:35.743Z,90.79
2023-02-24T16:23:06.939Z,90.48
2023-02-24T16:25:44.607Z,90.81
2023-02-24T16:28:15.834Z,90.56
2023-02-24T16:30:45.264Z,90.45
2023-02-24T16:33:15.206Z,90.68
2023-02-24T16:35:44.578Z,90.52
2023-02-24T16:38:15.297Z,90.75
2023-02-24T16:40:46.207Z,90.71
2023-02-24T16:43:15.253Z,89.97
2023-02-24T16:45:46.015Z,89.81
2023-02-24T16:48:20.897Z,89.74
2023-02-24T16:50:49.520Z,89.65
2023-02-24T16:53:24.033Z,88.96
2023-02-24T16:55:52.940Z,88.71
2023-02-24T16:58:23.242Z,89.02
2023-02-24T17:00:56.158Z,88.93
2023-02-24T17:03:28.132Z,88.19
2023-02-24T17:05:57.745Z,88.23
2023-02-24T17:08:27.683Z,87.96
2023-02-24T17:10:57.757Z,87.56
2023-02-24T17:13:27.646Z,87.21
2023-02-24T17:15:57.243Z,87.42
2023-02-24T17:18:26.991Z,87.25
2023-02-24T17:20:55.940Z,86.89
2023-02-24T17:23:24.375Z,87.17
2023-02-24T17:25:57.928Z,86.83
2023-02-24T17:28:26.793Z,86.82
2023-02-24T17:30:55.372Z,86.69
2023-02-24T17:33:24.118Z,86.60
2023-02-24T17:35:52.665Z,86.50
2023-02-24T17:38:24.120Z,86.18
2023-02-24T17:40:55.606Z,86.26
2023-02-24T17:43:24.133Z,86.31
2023-02-24T17:45:53.650Z,86.30
2023-02-24T17:48:23.048Z,86.70
2023-02-24T17:50:51.960Z,86.06
2023-02-24T17:53:20.245Z,85.72
2023-02-24T17:56:01.972Z,85.88
2023-02-24T17:58:33.270Z,85.96
2023-02-24T18:01:02.965Z,85.84
2023-02-24T18:03:31.901Z,85.97
2023-02-24T18:06:01.552Z,86.57
2023-02-24T18:08:30.704Z,86.99
2023-02-24T18:11:00.867Z,87.44
2023-02-24T18:13:32.355Z,87.67
2023-02-24T18:16:01.506Z,88.16
2023-02-24T18:18:30.296Z,88.09
2023-02-24T18:21:02.809Z,88.39
2023-02-24T18:23:31.963Z,88.86
2023-02-24T18:26:03.678Z,89.35
2023-02-24T18:28:34.672Z,89.85
2023-02-24T18:31:10.370Z,90.17
2023-02-24T18:33:39.290Z,90.56
2023-02-24T18:36:09.078Z,90.88
2023-02-24T18:38:37.773Z,91.37
2023-02-24T18:41:08.024Z,91.54
2023-02-24T18:43:37.937Z,91.80
2023-02-24T18:46:09.371Z,92.24
2023-02-24T18:48:40.067Z,92.72
2023-02-24T18:51:09.027Z,93.02
2023-02-24T18:53:38.234Z,93.23
2023-02-24T18:56:09.203Z,93.31
2023-02-24T18:58:40.737Z,93.46
2023-02-24T19:01:14.793Z,93.43
2023-02-24T19:03:43.911Z,93.66
2023-02-24T19:06:13.132Z,93.95
2023-02-24T19:08:42.580Z,94.24
2023-02-24T19:11:13.270Z,94.47
2023-02-24T19:13:43.748Z,94.54
2023-02-24T19:16:12.642Z,94.72
2023-02-24T19:18:41.004Z,95.00
2023-02-24T19:21:11.079Z,95.29
2023-02-24T19:23:39.595Z,95.55
2023-02-24T19:26:15.314Z,95.62
2023-02-24T19:28:45.064Z,95.74
2023-02-24T19:31:16.237Z,95.97
2023-02-24T19:33:45.064Z,96.03
2023-02-24T19:36:13.713Z,95.96
2023-02-24T19:38:43.038Z,95.85
2023-02-24T19:41:11.745Z,96.02
2023-02-24T19:43:41.691Z,96.19
2023-02-24T19:46:14.584Z,96.31
2023-02-24T19:48:43.330Z,96.51
2023-02-24T19:51:14.549Z,96.53
2023-02-24T19:53:43.124Z,96.76
2023-02-24T19:56:11.806Z,97.04
2023-02-24T19:58:41.938Z,97.15
2023-02-24T20:01:14.721Z,97.21
2023-02-24T20:03:44.337Z,97.55
2023-02-24T20:06:18.949Z,97.60
2023-02-24T20:08:47.072Z,98.33
2023-02-24T20:11:15.524Z,97.92
2023-02-24T20:13:44.240Z,98.23
2023-02-24T20:16:16.745Z,98.41
2023-02-24T20:18:46.082Z,98.62
2023-02-24T20:21:16.008Z,98.63
2023-02-24T20:23:44.853Z,98.60
2023-02-24T20:26:16.128Z,98.69
2023-02-24T20:28:45.409Z,98.74
2023-02-24T20:31:18.517Z,98.71
2023-02-24T20:33:48.804Z,98.78
2023-02-24T20:36:21.003Z,98.74
2023-02-24T20:38:50.629Z,98.76
2023-02-24T20:41:19.981Z,98.81
2023-02-24T20:43:48.915Z,98.72
2023-02-24T20:46:24.070Z,98.78
2023-02-24T20:48:53.435Z,98.91
2023-02-24T20:51:23.024Z,99.01
2023-02-24T20:53:57.664Z,99.02
2023-02-24T20:56:27.990Z,99.28
2023-02-24T20:59:00.919Z,99.05
2023-02-24T21:01:32.242Z,99.15
2023-02-24T21:04:01.457Z,99.17
2023-02-24T21:06:30.880Z,99.13
2023-02-24T21:08:59.717Z,99.04
2023-02-24T21:11:30.352Z,99.07
2023-02-24T21:14:00.019Z,99.10
2023-02-24T21:16:30.352Z,99.18
2023-02-24T21:18:59.060Z,99.59
2023-02-24T21:21:27.683Z,99.15
2023-02-24T21:23:56.805Z,98.99
2023-02-24T21:26:27.017Z,98.93
2023-02-24T21:28:57.897Z,98.73
2023-02-24T21:31:26.968Z,98.83
2023-02-24T21:33:57.292Z,98.80
2023-02-24T21:36:27.913Z,98.61
2023-02-24T21:38:56.754Z,98.83
2023-02-24T21:41:25.584Z,98.39
2023-02-24T21:43:55.760Z,98.34
2023-02-24T21:46:28.123Z,98.43
2023-02-24T21:48:59.217Z,98.28
2023-02-24T21:51:29.385Z,98.42
2023-02-24T21:53:58.540Z,98.59
2023-02-24T21:56:29.582Z,98.42
2023-02-24T21:59:00.006Z,98.53
2023-02-24T22:01:31.811Z,98.58
2023-02-24T22:04:03.987Z,98.31
2023-02-24T22:06:34.373Z,98.78
2023-02-24T22:09:04.441Z,98.74
2023-02-24T22:11:35.704Z,98.85
2023-02-24T22:14:04.688Z,98.90
2023-02-24T22:16:33.267Z,98.74
2023-02-24T22:19:03.218Z,98.95
2023-02-24T22:21:31.757Z,98.87
2023-02-24T22:24:03.212Z,98.68
2023-02-24T22:26:32.617Z,98.69
2023-02-24T22:29:02.187Z,98.48
2023-02-24T22:31:34.284Z,98.63
2023-02-24T22:34:05.339Z,98.76
2023-02-24T22:36:36.711Z,98.47
2023-02-24T22:39:06.701Z,98.39
2023-02-24T22:41:36.376Z,98.11
2023-02-24T22:44:06.419Z,98.11
2023-02-24T22:46:37.410Z,97.70
2023-02-24T22:49:07.831Z,97.19
2023-02-24T22:51:36.536Z,97.24
2023-02-24T22:54:05.910Z,97.22
2023-02-24T22:56:34.872Z,97.34
2023-02-24T22:59:03.364Z,97.11
2023-02-24T23:01:33.970Z,96.67
2023-02-24T23:04:03.345Z,96.50
2023-02-24T23:06:33.159Z,96.31
2023-02-24T23:09:03.158Z,96.34
2023-02-24T23:11:33.495Z,96.27
2023-02-24T23:14:05.886Z,96.70
2023-02-24T23:16:36.067Z,96.32
2023-02-24T23:19:07.283Z,96.67
2023-02-24T23:21:39.096Z,96.87
2023-02-24T23:24:10.806Z,96.76
2023-02-24T23:26:41.914Z,97.09
2023-02-24T23:29:11.547Z,97.14
2023-02-24T23:31:40.919Z,97.27
2023-02-24T23:34:09.995Z,97.40
2023-02-24T23:36:43.491Z,97.53
2023-02-24T23:39:14.430Z,97.87
2023-02-24T23:41:45.938Z,98.07
2023-02-24T23:44:14.274Z,97.80
2023-02-24T23:46:42.945Z,98.01
2023-02-24T23:49:11.454Z,98.17
2023-02-24T23:51:48.421Z,97.83
2023-02-24T23:54:17.836Z,97.71
2023-02-24T23:56:46.710Z,97.52
2023-02-24T23:59:15.939Z,97.61
